createdAt,value
2017-10-11T00:02:18.605Z,16.50
2017-10-11T00:04:46.909Z,16.51
2017-10-11T00:07:16.001Z,16.51
2017-10-11T00:09:45.150Z,16.53
2017-10-11T00:12:13.444Z,16.51
2017-10-11T00:14:41.765Z,16.51
2017-10-11T00:17:10.072Z,16.54
2017-10-11T00:19:38.384Z,16.55
2017-10-11T00:22:06.774Z,16.57
2017-10-11T00:24:35.158Z,16.60
2017-10-11T00:27:03.462Z,16.63
2017-10-11T00:29:31.772Z,16.65
2017-10-11T00:32:00.858Z,16.63
2017-10-11T00:34:29.923Z,16.64
2017-10-11T00:36:58.236Z,16.67
2017-10-11T00:39:26.541Z,16.69
2017-10-11T00:41:54.866Z,16.70
2017-10-11T00:44:23.176Z,16.70
2017-10-11T00:46:52.249Z,16.69
2017-10-11T00:49:20.547Z,16.69
2017-10-11T00:51:48.858Z,16.67
2017-10-11T00:54:17.166Z,16.67
2017-10-11T00:56:45.473Z,16.68
2017-10-11T00:59:13.848Z,16.67
2017-10-11T01:01:42.166Z,16.65
2017-10-11T01:04:10.475Z,16.63
2017-10-11T01:06:38.782Z,16.61
2017-10-11T01:09:07.075Z,16.62
2017-10-11T01:11:35.540Z,16.58
2017-10-11T01:14:03.834Z,16.55
2017-10-11T01:16:32.210Z,16.53
2017-10-11T01:19:00.520Z,16.47
2017-10-11T01:21:28.830Z,16.37
2017-10-11T01:23:57.910Z,16.29
2017-10-11T01:26:27.149Z,16.20
2017-10-11T01:28:55.455Z,16.12
2017-10-11T01:31:23.825Z,16.03
2017-10-11T01:33:52.134Z,16.01
2017-10-11T01:36:20.446Z,15.98
2017-10-11T01:38:48.762Z,15.96
2017-10-11T01:41:17.153Z,15.93
2017-10-11T01:43:45.475Z,15.90
2017-10-11T01:46:13.786Z,15.90
2017-10-11T01:48:42.849Z,15.89
2017-10-11T01:51:11.151Z,15.90
2017-10-11T01:53:39.446Z,15.89
2017-10-11T01:56:08.515Z,15.89
2017-10-11T01:58:36.815Z,15.91
2017-10-11T02:01:05.124Z,15.91
2017-10-11T02:03:33.425Z,15.92
2017-10-11T02:06:01.738Z,15.94
2017-10-11T02:08:30.057Z,15.95
2017-10-11T02:10:59.120Z,15.96
2017-10-11T02:13:27.435Z,15.96
2017-10-11T02:15:56.549Z,15.98
2017-10-11T02:18:25.641Z,15.99
2017-10-11T02:20:54.725Z,16.00
2017-10-11T02:23:23.792Z,16.00
2017-10-11T02:25:52.245Z,16.01
2017-10-11T02:28:20.541Z,16.02
2017-10-11T02:30:48.841Z,16.03
2017-10-11T02:33:17.160Z,16.04
2017-10-11T02:35:46.246Z,16.07
2017-10-11T02:38:14.562Z,16.08
2017-10-11T02:40:42.887Z,16.09
2017-10-11T02:43:11.200Z,16.10
2017-10-11T02:45:39.507Z,16.09
2017-10-11T02:48:07.823Z,16.05
2017-10-11T02:50:36.122Z,16.05
2017-10-11T02:53:04.432Z,16.04
2017-10-11T02:55:34.462Z,16.02
2017-10-11T02:58:03.560Z,15.99
2017-10-11T03:00:32.619Z,15.95
2017-10-11T03:03:00.980Z,15.93
2017-10-11T03:05:29.287Z,15.90
2017-10-11T03:07:57.595Z,15.89
2017-10-11T03:10:26.676Z,15.88
2017-10-11T03:12:54.981Z,15.85
2017-10-11T03:15:24.065Z,15.87
2017-10-11T03:17:53.136Z,15.87
2017-10-11T03:20:21.453Z,15.87
2017-10-11T03:22:50.525Z,15.88
2017-10-11T03:25:18.883Z,15.88
2017-10-11T03:27:47.214Z,15.89
2017-10-11T03:30:15.524Z,15.92
2017-10-11T03:32:44.743Z,15.92
2017-10-11T03:35:13.049Z,15.92
2017-10-11T03:37:41.397Z,15.94
2017-10-11T03:40:09.712Z,15.95
2017-10-11T03:42:38.014Z,15.94
2017-10-11T03:45:06.323Z,15.97
2017-10-11T03:47:35.475Z,15.97
2017-10-11T03:50:03.859Z,15.98
2017-10-11T03:52:32.166Z,15.98
2017-10-11T03:55:00.473Z,15.98
2017-10-11T03:57:28.801Z,15.99
2017-10-11T03:59:57.103Z,15.99
2017-10-11T04:02:25.409Z,16.00
2017-10-11T04:04:54.505Z,16.03
2017-10-11T04:07:23.587Z,16.04
2017-10-11T04:09:51.899Z,16.06
2017-10-11T04:12:20.967Z,16.08
2017-10-11T04:14:49.267Z,16.11
2017-10-11T04:17:18.332Z,16.15
2017-10-11T04:19:46.647Z,16.18
2017-10-11T04:22:15.720Z,16.18
2017-10-11T04:24:44.026Z,16.18
2017-10-11T04:27:13.133Z,16.19
2017-10-11T04:29:42.472Z,16.20
2017-10-11T04:32:10.781Z,16.20
2017-10-11T04:34:39.075Z,16.20
2017-10-11T04:37:07.374Z,16.19
2017-10-11T04:39:36.430Z,16.20
2017-10-11T04:42:04.752Z,16.21
2017-10-11T04:44:33.810Z,16.22
2017-10-11T04:47:02.117Z,16.23
2017-10-11T04:49:30.439Z,16.24
2017-10-11T04:51:58.746Z,16.24
2017-10-11T04:54:27.071Z,16.26
2017-10-11T04:56:56.156Z,16.28
2017-10-11T04:59:24.537Z,16.30
2017-10-11T05:01:52.841Z,16.31
2017-10-11T05:04:21.973Z,16.30
2017-10-11T05:06:50.383Z,16.29
2017-10-11T05:09:18.723Z,16.29
2017-10-11T05:11:47.054Z,16.29
2017-10-11T05:14:15.387Z,16.29
2017-10-11T05:16:43.691Z,16.30
2017-10-11T05:19:11.997Z,16.33
2017-10-11T05:21:40.308Z,16.33
2017-10-11T05:24:08.615Z,16.35
2017-10-11T05:26:37.056Z,16.34
2017-10-11T05:29:05.356Z,16.36
2017-10-11T05:31:33.680Z,16.37
2017-10-11T05:34:02.003Z,16.37
2017-10-11T05:36:30.313Z,16.37
2017-10-11T05:39:00.015Z,16.37
2017-10-11T05:41:29.108Z,16.38
2017-10-11T05:43:57.403Z,16.39
2017-10-11T05:46:26.468Z,16.38
2017-10-11T05:48:54.775Z,16.39
2017-10-11T05:51:23.087Z,16.40
2017-10-11T05:53:51.383Z,16.40
2017-10-11T05:56:19.717Z,16.40
2017-10-11T05:58:48.024Z,16.40
2017-10-11T06:01:17.129Z,16.40
2017-10-11T06:03:45.430Z,16.40
2017-10-11T06:06:13.751Z,16.41
2017-10-11T06:08:42.065Z,16.42
2017-10-11T06:11:11.177Z,16.43
2017-10-11T06:13:39.493Z,16.42
2017-10-11T06:16:07.805Z,16.46
2017-10-11T06:18:36.116Z,16.47
2017-10-11T06:21:04.428Z,16.49
2017-10-11T06:23:32.747Z,16.49
2017-10-11T06:26:01.051Z,16.50
2017-10-11T06:28:30.129Z,16.52
2017-10-11T06:30:59.202Z,16.52
2017-10-11T06:33:27.500Z,16.53
2017-10-11T06:35:56.562Z,16.55
2017-10-11T06:38:24.870Z,16.55
2017-10-11T06:40:53.238Z,16.55
2017-10-11T06:43:21.538Z,16.56
2017-10-11T06:45:49.838Z,16.56
2017-10-11T06:48:18.151Z,16.56
2017-10-11T06:50:46.440Z,16.58
2017-10-11T06:53:14.760Z,16.58
2017-10-11T06:55:43.068Z,16.60
2017-10-11T06:58:11.390Z,16.64
2017-10-11T07:00:39.712Z,16.63
2017-10-11T07:03:08.005Z,16.63
2017-10-11T07:05:36.324Z,16.64
2017-10-11T07:08:04.636Z,16.62
2017-10-11T07:10:32.928Z,16.60
2017-10-11T07:13:01.239Z,16.58
2017-10-11T07:15:30.304Z,16.57
2017-10-11T07:17:58.628Z,16.58
2017-10-11T07:20:27.752Z,16.58
2017-10-11T07:22:56.136Z,16.57
2017-10-11T07:25:24.520Z,16.56
2017-10-11T07:27:52.820Z,16.54
2017-10-11T07:30:21.135Z,16.53
2017-10-11T07:32:49.556Z,16.52
2017-10-11T07:35:17.875Z,16.51
2017-10-11T07:37:46.410Z,16.63
2017-10-11T07:40:15.512Z,16.74
2017-10-11T07:42:44.588Z,16.76
2017-10-11T07:45:12.918Z,16.78
2017-10-11T07:47:41.247Z,16.80
2017-10-11T07:50:09.584Z,16.80
2017-10-11T07:52:37.964Z,16.82
2017-10-11T07:55:06.268Z,16.84
2017-10-11T07:57:34.564Z,16.95
2017-10-11T08:00:02.874Z,16.99
2017-10-11T08:02:31.927Z,17.01
2017-10-11T08:05:00.231Z,17.01
2017-10-11T08:07:28.540Z,17.01
2017-10-11T08:09:57.613Z,16.95
2017-10-11T08:12:25.987Z,16.89
2017-10-11T08:14:54.298Z,16.87
2017-10-11T08:17:22.850Z,16.84
2017-10-11T08:19:51.149Z,16.90
2017-10-11T08:22:19.470Z,16.99
2017-10-11T08:24:47.864Z,17.14
2017-10-11T08:27:16.155Z,17.25
2017-10-11T08:29:44.478Z,17.24
2017-10-11T08:32:12.786Z,17.22
2017-10-11T08:34:41.848Z,17.23
2017-10-11T08:37:10.144Z,17.24
2017-10-11T08:39:38.441Z,17.19
2017-10-11T08:42:07.519Z,17.14
2017-10-11T08:44:37.348Z,17.15
2017-10-11T08:47:06.444Z,17.13
2017-10-11T08:49:34.748Z,17.05
2017-10-11T08:52:03.681Z,16.98
2017-10-11T08:54:31.990Z,16.91
2017-10-11T08:57:00.307Z,16.91
2017-10-11T08:59:28.617Z,16.97
2017-10-11T09:01:56.913Z,17.04
2017-10-11T09:04:25.228Z,17.16
2017-10-11T09:06:53.525Z,17.27
2017-10-11T09:09:22.590Z,17.41
2017-10-11T09:11:50.911Z,17.44
2017-10-11T09:14:19.992Z,17.47
2017-10-11T09:16:48.289Z,17.49
2017-10-11T09:19:17.994Z,17.55
2017-10-11T09:21:47.084Z,17.63
2017-10-11T09:24:16.162Z,17.73
2017-10-11T09:26:44.464Z,17.80
2017-10-11T09:29:12.773Z,17.79
2017-10-11T09:31:41.197Z,17.78
2017-10-11T09:34:09.516Z,17.81
2017-10-11T09:36:38.662Z,17.91
2017-10-11T09:39:06.966Z,17.94
2017-10-11T09:41:35.279Z,17.94
2017-10-11T09:44:03.579Z,17.93
2017-10-11T09:46:32.660Z,17.92
2017-10-11T09:49:01.725Z,17.89
2017-10-11T09:51:30.076Z,17.86
2017-10-11T09:53:58.387Z,17.93
2017-10-11T09:56:26.719Z,18.00
2017-10-11T09:58:55.787Z,18.04
2017-10-11T10:01:24.095Z,18.14
2017-10-11T10:03:53.190Z,18.23
2017-10-11T10:06:22.281Z,18.27
2017-10-11T10:08:50.603Z,18.25
2017-10-11T10:11:18.929Z,18.22
2017-10-11T10:13:47.305Z,18.26
2017-10-11T10:16:15.622Z,18.21
2017-10-11T10:18:44.698Z,18.19
2017-10-11T10:21:13.024Z,18.24
2017-10-11T10:23:41.342Z,18.30
2017-10-11T10:26:09.671Z,18.21
2017-10-11T10:28:38.790Z,18.14
2017-10-11T10:31:07.173Z,18.05
2017-10-11T10:33:35.477Z,17.99
2017-10-11T10:36:03.783Z,17.89
2017-10-11T10:38:32.091Z,17.92
2017-10-11T10:41:01.169Z,18.06
2017-10-11T10:43:29.513Z,18.18
2017-10-11T10:45:57.861Z,18.32
2017-10-11T10:48:26.939Z,18.44
2017-10-11T10:50:55.244Z,18.48
2017-10-11T10:53:24.329Z,18.50
2017-10-11T10:55:53.422Z,18.59
2017-10-11T10:58:21.742Z,18.70
2017-10-11T11:00:50.068Z,18.73
2017-10-11T11:03:18.450Z,18.79
2017-10-11T11:05:46.748Z,18.68
2017-10-11T11:08:15.062Z,18.60
2017-10-11T11:10:43.371Z,18.47
2017-10-11T11:13:11.671Z,18.31
2017-10-11T11:15:39.968Z,18.20
2017-10-11T11:18:08.281Z,18.26
2017-10-11T11:20:36.593Z,18.33
2017-10-11T11:23:04.900Z,18.44
2017-10-11T11:25:33.228Z,18.55
2017-10-11T11:28:01.554Z,18.66
2017-10-11T11:30:29.855Z,18.78
2017-10-11T11:32:59.668Z,18.90
2017-10-11T11:35:27.975Z,19.05
2017-10-11T11:37:57.075Z,19.14
2017-10-11T11:40:26.137Z,19.09
2017-10-11T11:42:54.449Z,19.10
2017-10-11T11:45:23.534Z,19.07
2017-10-11T11:47:51.900Z,18.90
2017-10-11T11:50:20.228Z,18.80
2017-10-11T11:52:49.302Z,18.70
2017-10-11T11:55:17.618Z,18.52
2017-10-11T11:57:45.938Z,18.39
2017-10-11T12:00:14.251Z,18.30
2017-10-11T12:02:42.562Z,18.13
2017-10-11T12:05:10.857Z,18.01
2017-10-11T12:07:39.162Z,17.95
2017-10-11T12:10:07.468Z,17.95
2017-10-11T12:12:35.807Z,18.00
2017-10-11T12:15:04.181Z,17.95
2017-10-11T12:17:32.469Z,17.88
2017-10-11T12:20:00.887Z,17.91
2017-10-11T12:22:29.183Z,18.01
2017-10-11T12:24:57.482Z,18.13
2017-10-11T12:27:26.545Z,18.23
2017-10-11T12:29:54.848Z,18.38
2017-10-11T12:32:23.155Z,18.51
2017-10-11T12:34:51.554Z,18.63
2017-10-11T12:37:19.863Z,18.67
2017-10-11T12:39:48.157Z,18.69
2017-10-11T12:42:16.455Z,18.70
2017-10-11T12:44:44.881Z,18.70
2017-10-11T12:47:13.183Z,18.70
2017-10-11T12:49:41.497Z,18.63
2017-10-11T12:52:09.813Z,18.58
2017-10-11T12:54:38.121Z,18.58
2017-10-11T12:57:06.434Z,18.46
2017-10-11T12:59:34.725Z,18.33
2017-10-11T13:02:03.050Z,18.27
2017-10-11T13:04:31.353Z,18.23
2017-10-11T13:06:59.653Z,18.14
2017-10-11T13:09:27.976Z,18.11
2017-10-11T13:11:57.041Z,18.09
2017-10-11T13:14:25.362Z,18.10
2017-10-11T13:16:53.666Z,18.06
2017-10-11T13:19:21.986Z,18.06
2017-10-11T13:21:50.282Z,18.02
2017-10-11T13:24:18.598Z,17.98
2017-10-11T13:26:46.904Z,17.96
2017-10-11T13:29:15.199Z,17.95
2017-10-11T13:31:43.517Z,17.96
2017-10-11T13:34:12.607Z,17.93
2017-10-11T13:36:41.031Z,17.91
2017-10-11T13:39:09.353Z,17.93
2017-10-11T13:41:37.655Z,17.89
2017-10-11T13:44:05.969Z,17.88
2017-10-11T13:46:34.293Z,17.86
2017-10-11T13:49:02.618Z,17.84
2017-10-11T13:51:31.700Z,17.88
2017-10-11T13:54:00.023Z,17.89
2017-10-11T13:56:28.325Z,17.91
2017-10-11T13:58:56.619Z,17.98
2017-10-11T14:01:24.935Z,18.01
2017-10-11T14:03:54.002Z,18.02
2017-10-11T14:06:22.301Z,18.03
2017-10-11T14:08:50.602Z,18.04
2017-10-11T14:11:19.686Z,18.06
2017-10-11T14:13:47.984Z,18.06
2017-10-11T14:16:17.078Z,18.00
2017-10-11T14:18:46.144Z,17.93
2017-10-11T14:21:14.474Z,17.89
2017-10-11T14:23:43.552Z,17.81
2017-10-11T14:26:12.794Z,17.80
2017-10-11T14:28:41.103Z,17.80
2017-10-11T14:31:09.484Z,17.81
2017-10-11T14:33:37.790Z,17.80
2017-10-11T14:38:35.203Z,17.86
2017-10-11T14:41:03.520Z,17.87
2017-10-11T14:43:31.838Z,17.80
2017-10-11T14:46:00.141Z,17.78
2017-10-11T14:48:28.464Z,17.80
2017-10-11T14:50:56.761Z,17.78
2017-10-11T14:53:25.070Z,17.73
2017-10-11T14:55:54.136Z,17.70
2017-10-11T14:58:22.440Z,17.64
2017-10-11T15:00:51.504Z,17.61
2017-10-11T15:03:19.807Z,17.59
2017-10-11T15:05:48.129Z,17.58
2017-10-11T15:08:16.476Z,17.56
2017-10-11T15:10:44.779Z,17.51
2017-10-11T15:13:13.840Z,17.49
2017-10-11T15:15:42.155Z,17.48
2017-10-11T15:18:10.450Z,17.52
2017-10-11T15:20:39.581Z,17.56
2017-10-11T15:23:07.883Z,17.59
2017-10-11T15:25:36.218Z,17.60
2017-10-11T15:28:04.554Z,17.59
2017-10-11T15:30:32.863Z,17.57
2017-10-11T15:33:01.920Z,17.53
2017-10-11T15:35:30.238Z,17.50
2017-10-11T15:37:58.548Z,17.47
2017-10-11T15:40:27.619Z,17.44
2017-10-11T15:42:55.919Z,17.41
2017-10-11T15:45:25.038Z,17.36
2017-10-11T15:47:53.382Z,17.34
2017-10-11T15:50:21.694Z,17.35
2017-10-11T15:52:50.017Z,17.35
2017-10-11T15:55:18.335Z,17.34
2017-10-11T15:57:47.399Z,17.34
2017-10-11T16:00:15.692Z,17.31
2017-10-11T16:02:44.014Z,17.27
2017-10-11T16:05:12.335Z,17.23
2017-10-11T16:07:40.697Z,17.22
2017-10-11T16:10:08.994Z,17.20
2017-10-11T16:12:37.294Z,17.18
2017-10-11T16:15:05.610Z,17.13
2017-10-11T16:17:34.935Z,17.11
2017-10-11T16:20:03.232Z,17.05
2017-10-11T16:22:31.521Z,17.03
2017-10-11T16:24:59.824Z,17.01
2017-10-11T16:27:28.136Z,17.01
2017-10-11T16:29:57.198Z,16.99
2017-10-11T16:32:25.503Z,16.96
2017-10-11T16:34:54.600Z,16.94
2017-10-11T16:37:22.899Z,16.91
2017-10-11T16:39:51.958Z,16.91
2017-10-11T16:42:20.260Z,16.89
2017-10-11T16:44:48.561Z,16.87
2017-10-11T16:47:17.627Z,16.81
2017-10-11T16:49:45.936Z,16.77
2017-10-11T16:52:14.994Z,16.75
2017-10-11T16:54:43.312Z,16.76
2017-10-11T16:57:11.612Z,16.73
2017-10-11T16:59:40.739Z,16.73
2017-10-11T17:02:09.037Z,16.73
2017-10-11T17:04:37.362Z,16.72
2017-10-11T17:07:06.467Z,16.71
2017-10-11T17:09:35.592Z,16.67
2017-10-11T17:12:03.883Z,16.64
2017-10-11T17:14:32.206Z,16.57
2017-10-11T17:17:00.515Z,16.51
2017-10-11T17:19:29.617Z,16.44
2017-10-11T17:21:58.710Z,16.42
2017-10-11T17:24:27.781Z,16.42
2017-10-11T17:26:56.078Z,16.42
2017-10-11T17:29:24.416Z,16.41
2017-10-11T17:31:52.744Z,16.44
2017-10-11T17:34:21.034Z,16.46
2017-10-11T17:36:50.092Z,16.45
2017-10-11T17:39:18.467Z,16.44
2017-10-11T17:41:46.765Z,16.44
2017-10-11T17:44:15.106Z,16.44
2017-10-11T17:46:43.394Z,16.46
2017-10-11T17:49:11.709Z,16.45
2017-10-11T17:51:40.021Z,16.44
2017-10-11T17:54:09.092Z,16.44
2017-10-11T17:56:37.383Z,16.45
2017-10-11T17:59:05.684Z,16.47
2017-10-11T18:01:34.813Z,16.48
2017-10-11T18:04:03.114Z,16.47
2017-10-11T18:06:31.415Z,16.46
2017-10-11T18:08:59.781Z,16.46
2017-10-11T18:11:28.104Z,16.44
2017-10-11T18:13:56.421Z,16.43
2017-10-11T18:16:24.711Z,16.43
2017-10-11T18:18:53.109Z,16.43
2017-10-11T18:21:21.395Z,16.41
2017-10-11T18:23:49.708Z,16.39
2017-10-11T18:26:18.054Z,16.38
2017-10-11T18:28:46.361Z,16.38
2017-10-11T18:31:14.651Z,16.38
2017-10-11T18:33:42.943Z,16.38
2017-10-11T18:36:12.006Z,16.40
2017-10-11T18:38:40.373Z,16.38
2017-10-11T18:41:08.671Z,16.39
2017-10-11T18:43:36.985Z,16.38
2017-10-11T18:46:05.291Z,16.37
2017-10-11T18:48:33.600Z,16.35
2017-10-11T18:51:01.958Z,16.34
2017-10-11T18:53:30.248Z,16.33
2017-10-11T18:55:58.543Z,16.33
2017-10-11T18:58:26.842Z,16.33
2017-10-11T19:00:55.158Z,16.33
2017-10-11T19:03:24.290Z,16.36
2017-10-11T19:05:52.653Z,16.36
2017-10-11T19:08:21.710Z,16.35
2017-10-11T19:10:50.011Z,16.35
2017-10-11T19:13:18.322Z,16.34
2017-10-11T19:15:46.649Z,16.32
2017-10-11T19:18:14.963Z,16.31
2017-10-11T19:20:44.052Z,16.31
2017-10-11T19:23:12.343Z,16.29
2017-10-11T19:25:41.398Z,16.29
2017-10-11T19:28:09.723Z,16.29
2017-10-11T19:30:38.799Z,16.28
2017-10-11T19:33:07.112Z,16.28
2017-10-11T19:35:36.204Z,16.29
2017-10-11T19:38:05.263Z,16.30
2017-10-11T19:40:33.582Z,16.31
2017-10-11T19:43:02.660Z,16.30
2017-10-11T19:45:30.993Z,16.30
2017-10-11T19:47:59.285Z,16.31
2017-10-11T19:50:27.577Z,16.32
2017-10-11T19:52:55.931Z,16.33
2017-10-11T19:55:24.217Z,16.34
2017-10-11T19:57:52.540Z,16.33
2017-10-11T20:00:26.387Z,16.34
2017-10-11T20:02:55.488Z,16.35
2017-10-11T20:05:24.577Z,16.35
2017-10-11T20:07:52.880Z,16.35
2017-10-11T20:10:21.205Z,16.37
2017-10-11T20:12:49.565Z,16.36
2017-10-11T20:15:17.886Z,16.37
2017-10-11T20:17:46.205Z,16.36
2017-10-11T20:20:15.280Z,16.36
2017-10-11T20:22:43.592Z,16.36
2017-10-11T20:25:11.885Z,16.37
2017-10-11T20:27:40.176Z,16.37
2017-10-11T20:30:08.571Z,16.37
2017-10-11T20:32:36.902Z,16.38
2017-10-11T20:35:05.961Z,16.36
2017-10-11T20:37:34.340Z,16.35
2017-10-11T20:40:02.680Z,16.36
2017-10-11T20:42:31.900Z,16.38
2017-10-11T20:45:00.198Z,16.38
2017-10-11T20:47:28.512Z,16.39
2017-10-11T20:49:56.841Z,16.40
2017-10-11T20:52:25.226Z,16.42
2017-10-11T20:54:53.528Z,16.44
2017-10-11T20:57:21.846Z,16.43
2017-10-11T20:59:50.150Z,16.43
2017-10-11T21:02:19.208Z,16.46
2017-10-11T21:04:47.586Z,16.45
2017-10-11T21:07:15.882Z,16.43
2017-10-11T21:09:44.185Z,16.41
2017-10-11T21:12:13.263Z,16.41
2017-10-11T21:14:43.104Z,16.39
2017-10-11T21:17:12.167Z,16.39
2017-10-11T21:19:40.468Z,16.38
2017-10-11T21:22:08.844Z,16.37
2017-10-11T21:24:37.176Z,16.36
2017-10-11T21:27:05.482Z,16.34
2017-10-11T21:29:33.770Z,16.31
2017-10-11T21:32:02.101Z,16.25
2017-10-11T21:34:31.166Z,16.16
2017-10-11T21:36:59.476Z,16.10
2017-10-11T21:39:28.614Z,16.03
2017-10-11T21:41:56.907Z,15.93
2017-10-11T21:44:25.475Z,15.86
2017-10-11T21:46:53.775Z,15.79
2017-10-11T21:49:22.090Z,15.70
2017-10-11T21:51:50.426Z,15.61
2017-10-11T21:54:18.748Z,15.55
2017-10-11T21:56:47.057Z,15.47
2017-10-11T21:59:16.135Z,15.41
2017-10-11T22:01:45.208Z,15.33
2017-10-11T22:04:13.547Z,15.29
2017-10-11T22:06:41.856Z,15.24
2017-10-11T22:09:10.156Z,15.21
2017-10-11T22:11:38.480Z,15.20
2017-10-11T22:14:07.567Z,15.19
2017-10-11T22:16:36.634Z,15.18
2017-10-11T22:19:04.940Z,15.16
2017-10-11T22:21:34.016Z,15.13
2017-10-11T22:24:02.323Z,15.12
2017-10-11T22:26:30.636Z,15.10
2017-10-11T22:28:58.946Z,15.11
2017-10-11T22:31:27.256Z,15.09
2017-10-11T22:33:55.576Z,15.08
2017-10-11T22:36:23.895Z,15.06
2017-10-11T22:38:52.222Z,15.04
2017-10-11T22:41:21.357Z,15.02
2017-10-11T22:43:49.769Z,15.03
2017-10-11T22:46:18.095Z,15.01
2017-10-11T22:48:47.205Z,14.98
2017-10-11T22:51:15.534Z,14.97
2017-10-11T22:53:43.857Z,14.97
2017-10-11T22:56:12.961Z,14.96
2017-10-11T22:58:41.286Z,14.97
2017-10-11T23:01:09.647Z,14.98
2017-10-11T23:03:37.955Z,15.00
2017-10-11T23:06:06.258Z,15.00
2017-10-11T23:08:35.313Z,15.01
2017-10-11T23:11:03.643Z,15.02
2017-10-11T23:13:31.956Z,15.03
2017-10-11T23:16:00.275Z,15.06
2017-10-11T23:18:28.603Z,15.06
2017-10-11T23:20:57.681Z,15.06
2017-10-11T23:23:25.982Z,15.05
2017-10-11T23:25:55.078Z,15.03
2017-10-11T23:28:24.151Z,15.03
2017-10-11T23:30:52.455Z,15.03
2017-10-11T23:33:20.772Z,15.02
2017-10-11T23:35:49.086Z,15.04
2017-10-11T23:38:17.412Z,15.07
2017-10-11T23:40:46.622Z,15.10
2017-10-11T23:43:14.940Z,15.14
2017-10-11T23:45:43.295Z,15.18
2017-10-11T23:48:11.606Z,15.23
2017-10-11T23:50:39.937Z,15.29
2017-10-11T23:53:09.026Z,15.34
2017-10-11T23:55:37.384Z,15.37
2017-10-11T23:58:05.692Z,15.39
